« 美ら島エアーフェスタ2016【2日目final】 那覇空港 2016/12/11 sun | トップページ | 帰還行 那覇-中部 2016/12/12 mon »

2016/12/29

見送 那覇空港 2016/12/12 mon

2日間に渡る美ら島エアーフェスタも終わり、後はひたすら帰るのみ。ですが、翌日は搭乗便までの間、皆さんのお見送りです。

ROAH 112230Z 08004KT 040V140 9999 FEW040 SCT050 BKN060 21/13 Q1018 RMK 1CU040 3SC050 5SC060 A3008

20161212_roah_00ja8936

RAC871 ROAH-ROKJ JA8936 DHC8-314

朝はRW18。久しぶりに見る離陸風景。

20161212_roah_01ja8987

JAL900 ROAH-RJTT JA8987 B767-346

20161212_roah_02m5081

5081 P-3C VP-2

たぶん昨晩パトロールで那覇に着陸した風神が北に向けお帰りです。

20161212_roah_03m5057

5057 P-3C VP-5

こちらは地元機。これからパトロールに出発です。

ROAH 112300Z 08005KT 030V120 9999 FEW040 BKN060 22/13 Q1018 RMK 1CU040 7SC060 A3009

20161212_roah_04ja73ng

SKY951 RJGG-ROAH JA73NG B737-86N

20161212_roah_05yoza

沖縄の目。与座岳のガメラレーダーが西を睨んでいます。

20161212_roah_06ja703a

20161212_roah_07ja703a

ANA460 ROAH-RJTT JA703A B777-281

20161212_roah_08ja808p

APJ282 ROAH-RJFF JA808P A320-214

20161212_roah_09ja01va

VNL801 RJAA-ROAH JA01VA A320-216

20161212_roah_10e3458

#458 E-2C 403SQ

こちらも、朝からパトロールに出発

20161212_roah_11m5054

5054 P-3C VP-5

2機目のオライオンがパトロール出発

20161212_roah_12bi

アラート要員の皆さんもブルー御一行様の見送りに

20161212_roah_13bi

20161212_roah_14bi

#1 46-5726 / #2 46-5728 T-4 11SQ

20161212_roah_15bi

#3 46-5731 / #4 46-5729 T-4 11SQ

20161212_roah_16bi

20161212_roah_17bi

20161212_roah_18bi

4機での編隊離陸で新田原に向かいます

20161212_roah_19bi

20161212_roah_20bi

また逢いましょう。ありがとうございました。

20161212_roah_21b50006

TTW230 RCTP-ROAH B-50006 A320-232

ROAH 112330Z 08005KT 050V130 9999 FEW040 BKN070 22/14 Q1019 RMK 1CU040 6AC070 A3009

20161212_roah_22ja81rc

RAC873 ROAH-ROKJ JA81RC DHC8-402QCC

20161212_roah_23ja07jj

JJP312 ROAH-RJAA JA07JJ A320-232

20161212_roah_24p3c

飴ちゃんのP-3も飛んでった

20161212_roah_25ja8938

JTA51 RJFF-ROAH JA8938 B737-4Q3

20161212_roah_26ja75an

ANA461 RJTT-ROAH JA75AN B737-881

20161212_roah_27ja307k

ANA1762 ROIG-ROAH JA307K B737-54K

20161212_roah_28f2

こんどはF-2の黒豹さん

20161212_roah_29f2

大きく翼をフリフリしてお帰りです。

20161212_roah_30ja356k

ANA1201 RJFF-ROAH JA356K B737-5L9

20161212_roah_31ja623j

JAL901 RJTT-ROAH JA623J B767-346ER

ROAH 120000Z 09006KT 050V120 9999 FEW040 BKN070 23/13 Q1019 RMK 1CU040 6AC070 A3010

20161212_roah_32ja8936

RAC872 ROIG-ROAH JA8936 DHC8-315

20161212_roah_33bi

第2編隊が後に続きます

20161212_roah_34bi

20161212_roah_35bi

連続離陸・・

20161212_roah_36bi

お疲れサマー

20161212_roah_37ja737r

SKY511 RJTT-ROAH JA737R B737-86N

20161212_roah_38ja8342

ANA993 RJTT-ROAH JA8342 B767-381

20161212_roah_39b16220

EVA112 RCTP-ROAH B-16220 A321-211

20161212_roah_40ja804p

APJ921 ROAH-RCTP JA804P A320-214

20161212_roah_41ja808x

SNJ84 ROAH-RJFK JA808X B737-81D

20161212_roah_42ja73ng

SKY510 ROAH-RJTT JA73NG B737-86N

20161212_roah_43jg23052

JG23052 LR-2 XVH

20161212_roah_44b50006

TTW231 ROAH-RCTP B-50006 A320-232

20161212_roah_45ja8998

JTA552 ROMY-ROAH JA8998 B737-446

20161212_roah_46t065634

06-5634 T-4 13FTW G21

ROAH 120000Z 09006KT 050V120 9999 FEW040 BKN070 23/13 Q1019 RMK 1CU040 6AC070 A3010

20161212_roah_47ja73nk

SKY501 RJFF-ROAH JA73NK B737-86N

20161212_roah_48ja8999

JTA600 ROIG-ROAH JA8999 B737-446

20161212_roah_49ja614j

JAL991 RJTT-ROAH JA614J B767-346ER

20161212_roah_50ja01va

VNL900 ROAH-RJAA JA01VA A320-216

20161212_roah_51ja8936

RAC861 ROAH-ROMD JA8936 DHC8-315

20161212_roah_52ja81rc

RAC874 ROKJ-ROAH JA81RC DHC8-402QCC

20161212_roah_53ja356k

ANA1732 ROAH-RJBB JA356K B737-5L9

20161212_roah_54ja73np

SKY591 RJBE-ROAH JA73NP B737-8HX

20161212_roah_55ja307k

ANA1763 ROAH-ROIG JA307K B737-54K

20161212_roah_56ja8994

JTA43 RJGG-ROAH JA8994 B737-446

20161212_roah_57c751076

75-1076 C-130H 401SQ C76

20161212_roah_58c751076

ブルー随伴のハーキュリーズも上がったので、ボチボチ瀬長島から撤収、空港を目指します。

ROAH 120100Z 11007KT 060V140 9999 FEW040 24/13 Q1019 RMK 1CU040 A3009

20161212_roah_59tori

瀬長島の先輩!

|

« 美ら島エアーフェスタ2016【2日目final】 那覇空港 2016/12/11 sun | トップページ | 帰還行 那覇-中部 2016/12/12 mon »

BI」カテゴリの記事

那覇空港」カテゴリの記事

コメント

コメントを書く



(ウェブ上には掲載しません)


コメントは記事投稿者が公開するまで表示されません。



トラックバック


この記事へのトラックバック一覧です: 見送 那覇空港 2016/12/12 mon:

« 美ら島エアーフェスタ2016【2日目final】 那覇空港 2016/12/11 sun | トップページ | 帰還行 那覇-中部 2016/12/12 mon »